Ashley, Illinois
Current Conditions -  °F | °C
As of 2:55 AM on Sunday 21 Dec 2014 (Local Time) from KENL Reporting Station
Overcast Overcast  
Wind Chill: 30°   Ceiling: 2800
Heat Index: 35°   Visibility: 10mi
Dew Point: 29°   Wind: 6mph
Humidity: 80%   Direction: 140°SE
Pressure: 30.26"   Gusts: NA
Location:  38.33°N, 89.19°W
Report Text: KENL 210855Z AUTO 14005KT 10SM OVC028 02/M02 A3026 RMK AO2 T00151016
Loading
Personal Weather Stations






























Interactive Weather Map New forecast layout! Learn more

10-Day Weather Forecast

Advertisements
Track Severe Weather on mobile